Time;durP1;ratioP1;P1;durP2;ratioP2;P2;SDS_P1;SDS_P2;PMS_P1;PMS_P2;Temp;Humidity;BMP_temperature;BMP_pressure;BME280_temperature;BME280_humidity;BME280_pressure;Samples;Min_cycle;Max_cycle;Signal;HPM_P1;HPM_P2
2023/04/21 00:00:32;;;;;;;21.70;14.90;;;;;;;7.36;71.16;100690.38;5072589;28;20055;-65
2023/04/21 00:03:00;;;;;;;21.52;14.30;;;;;;;7.57;70.30;100685.47;5073271;28;20504;-65
2023/04/21 00:05:28;;;;;;;22.63;14.50;;;;;;;7.47;70.69;100683.69;5072289;28;20569;-67
2023/04/21 00:07:56;;;;;;;21.23;14.35;;;;;;;7.44;70.71;100681.53;5074372;28;20067;-67
2023/04/21 00:10:24;;;;;;;23.27;15.90;;;;;;;6.94;73.49;100673.88;5072708;28;20052;-67
2023/04/21 00:12:56;;;;;;;23.60;16.08;;;;;;;7.04;73.74;100681.19;5072726;28;20053;-66
2023/04/21 00:15:23;;;;;;;22.67;15.98;;;;;;;6.97;73.80;100676.06;5075299;28;20821;-67
2023/04/21 00:17:50;;;;;;;23.25;16.55;;;;;;;6.94;74.26;100678.56;5072133;28;20048;-66
2023/04/21 00:20:18;;;;;;;23.65;16.40;;;;;;;6.83;75.35;100678.66;5074904;28;20526;-65
2023/04/21 00:22:46;;;;;;;22.35;16.08;;;;;;;7.00;75.07;100678.22;5072070;28;20064;-66
2023/04/21 00:25:13;;;;;;;25.55;16.73;;;;;;;6.93;74.87;100675.00;5074374;28;20064;-66
2023/04/21 00:27:41;;;;;;;24.88;17.42;;;;;;;6.56;76.78;100672.09;5071673;28;20518;-66
2023/04/21 00:30:10;;;;;;;25.95;18.38;;;;;;;6.66;76.64;100666.53;5074570;28;20057;-66
2023/04/21 00:32:37;;;;;;;24.60;17.33;;;;;;;6.82;75.97;100655.13;5070252;28;20041;-66
2023/04/21 00:35:08;;;;;;;25.02;17.35;;;;;;;6.97;75.10;100670.59;5073280;28;20064;-66
2023/04/21 00:37:37;;;;;;;25.20;17.85;;;;;;;7.01;75.45;100660.66;5070997;28;20048;-66
2023/04/21 00:40:05;;;;;;;24.30;17.08;;;;;;;6.64;76.44;100655.06;5084819;28;20056;-67
2023/04/21 00:42:32;;;;;;;25.17;17.83;;;;;;;6.67;77.09;100646.28;5054527;28;20061;-65
2023/04/21 00:45:07;;;;;;;25.55;17.83;;;;;;;6.73;76.86;100632.25;5073630;28;20044;-65
2023/04/21 00:47:35;;;;;;;26.15;16.98;;;;;;;7.08;75.71;100638.44;5073136;28;20055;-65
2023/04/21 00:50:04;;;;;;;23.33;16.20;;;;;;;6.92;76.02;100637.81;5073105;28;20052;-65
2023/04/21 00:52:40;;;;;;;26.20;17.52;;;;;;;6.61;77.05;100636.47;5055546;28;20060;-65
2023/04/21 00:55:08;;;;;;;26.08;16.83;;;;;;;6.61;77.51;100637.28;5066535;28;20059;-65
2023/04/21 00:57:38;;;;;;;25.42;17.60;;;;;;;6.67;77.28;100627.94;5071432;28;20052;-65
2023/04/21 01:00:10;;;;;;;22.65;16.73;;;;;;;6.82;76.66;100627.75;5074513;28;20055;-65
2023/04/21 01:02:38;;;;;;;24.35;16.60;;;;;;;6.72;76.57;100630.63;5072020;28;20074;-65
2023/04/21 01:05:10;;;;;;;24.17;17.73;;;;;;;6.58;77.67;100632.41;5073947;28;20044;-65
2023/04/21 01:07:37;;;;;;;24.40;16.98;;;;;;;6.67;77.45;100629.84;5070498;28;20067;-65
2023/04/21 01:10:09;;;;;;;25.35;17.42;;;;;;;6.59;77.92;100628.56;5073315;28;20060;-65
2023/04/21 01:12:44;;;;;;;23.50;17.17;;;;;;;6.46;78.27;100622.94;5058699;28;20048;-65
2023/04/21 01:15:16;;;;;;;23.42;16.48;;;;;;;6.49;78.50;100619.63;5077714;28;20060;-66
2023/04/21 01:17:45;;;;;;;26.10;17.35;;;;;;;6.48;78.22;100612.53;5076801;28;20045;-65
2023/04/21 01:20:14;;;;;;;26.40;16.75;;;;;;;6.84;77.17;100614.59;5075902;28;20064;-65
2023/04/21 01:22:43;;;;;;;23.20;16.58;;;;;;;6.71;77.44;100612.53;5074828;28;20068;-65
2023/04/21 01:25:10;;;;;;;24.30;17.03;;;;;;;6.61;77.31;100612.66;5072217;28;20056;-65
2023/04/21 01:27:38;;;;;;;23.73;17.00;;;;;;;6.68;77.62;100602.19;5046316;28;20294;-68
2023/04/21 01:30:06;;;;;;;26.02;18.30;;;;;;;6.70;77.96;100610.09;5075932;28;20048;-66
2023/04/21 01:32:35;;;;;;;26.38;18.08;;;;;;;6.44;78.51;100611.47;5069088;28;20057;-66
2023/04/21 01:35:02;;;;;;;24.20;17.52;;;;;;;6.40;79.00;100603.03;5068106;28;20044;-66
2023/04/21 01:37:31;;;;;;;29.63;19.35;;;;;;;6.58;78.64;100607.78;5062175;28;20060;-65
2023/04/21 01:40:03;;;;;;;29.15;18.70;;;;;;;6.55;78.85;100613.00;5057963;28;20064;-65
2023/04/21 01:42:33;;;;;;;27.58;18.50;;;;;;;6.81;78.27;100609.72;5073595;28;20042;-66
2023/04/21 01:45:01;;;;;;;24.55;17.80;;;;;;;6.78;77.92;100607.53;5059639;28;20052;-66
2023/04/21 01:47:29;;;;;;;24.20;17.98;;;;;;;6.94;77.62;100602.69;5074825;28;20063;-65
2023/04/21 01:49:57;;;;;;;26.27;18.13;;;;;;;6.65;78.24;100593.75;5062618;28;20060;-66
2023/04/21 01:52:24;;;;;;;27.67;18.65;;;;;;;7.02;77.36;100595.78;5072276;28;20467;-65
2023/04/21 01:54:53;;;;;;;27.10;19.23;;;;;;;6.89;76.76;100586.34;5075814;28;20048;-66
2023/04/21 01:57:21;;;;;;;28.73;19.33;;;;;;;6.76;77.77;100587.06;5075978;28;20059;-66
2023/04/21 01:59:50;;;;;;;27.33;18.83;;;;;;;6.62;78.30;100595.16;5067016;28;20048;-66
2023/04/21 02:02:17;;;;;;;36.97;19.77;;;;;;;6.67;78.41;100592.38;5087491;28;20048;-66
2023/04/21 02:04:45;;;;;;;27.60;18.83;;;;;;;6.96;77.23;100586.81;5074697;28;20056;-66
2023/04/21 02:07:12;;;;;;;25.13;18.00;;;;;;;7.21;76.56;100585.66;5057646;28;20049;-66
2023/04/21 02:09:41;;;;;;;28.38;20.05;;;;;;;7.26;75.61;100580.13;5060194;28;20041;-65
2023/04/21 02:12:09;;;;;;;27.20;18.83;;;;;;;6.78;76.84;100580.16;5071652;28;20036;-66
2023/04/21 02:14:36;;;;;;;25.67;18.73;;;;;;;7.04;77.46;100572.47;5072351;28;20144;-67
2023/04/21 02:17:06;;;;;;;30.40;20.42;;;;;;;6.90;77.17;100576.22;5040458;28;20058;-68
2023/04/21 02:19:34;;;;;;;25.98;18.88;;;;;;;7.21;76.20;100583.75;5075944;28;20060;-65
2023/04/21 02:22:01;;;;;;;24.58;18.60;;;;;;;7.24;76.03;100574.13;5073826;28;20053;-65
2023/04/21 02:24:28;;;;;;;26.88;18.90;;;;;;;6.94;77.28;100580.81;5059332;28;20075;-66
2023/04/21 02:26:57;;;;;;;27.63;19.40;;;;;;;6.81;78.13;100579.59;5069829;28;20056;-66
2023/04/21 02:29:27;;;;;;;31.00;18.95;;;;;;;6.98;77.65;100567.34;5076997;28;20060;-65
2023/04/21 02:31:55;;;;;;;26.15;19.67;;;;;;;7.05;77.13;100570.53;5075330;28;20083;-65
2023/04/21 02:34:38;;;;;;;27.17;18.83;;;;;;;6.75;78.39;100574.47;5074456;28;20056;-65
2023/04/21 02:37:05;;;;;;;27.23;19.80;;;;;;;6.77;78.36;100575.81;5072339;28;20052;-66
2023/04/21 02:39:33;;;;;;;26.15;18.70;;;;;;;7.21;77.60;100569.22;5075202;28;20146;-66
2023/04/21 02:42:00;;;;;;;30.50;19.70;;;;;;;7.20;76.37;100567.63;5056046;28;20048;-66
2023/04/21 02:44:28;;;;;;;27.17;19.23;;;;;;;6.96;77.07;100564.91;5076595;28;20419;-65
2023/04/21 02:46:55;;;;;;;26.42;19.33;;;;;;;7.16;76.98;100574.78;5074683;28;20059;-66
2023/04/21 02:49:23;;;;;;;25.92;19.05;;;;;;;7.22;76.46;100565.41;5076433;28;20064;-65
2023/04/21 02:51:50;;;;;;;27.17;19.33;;;;;;;7.14;76.54;100572.34;5073056;28;20056;-66
2023/04/21 02:54:17;;;;;;;26.02;19.55;;;;;;;7.09;76.69;100560.63;5074979;28;20040;-65
2023/04/21 02:56:45;;;;;;;26.50;19.63;;;;;;;7.07;76.93;100552.72;5073597;28;20055;-65
2023/04/21 02:59:15;;;;;;;26.88;20.20;;;;;;;7.06;76.85;100556.53;5076639;28;20055;-66
2023/04/21 03:01:43;;;;;;;27.25;19.50;;;;;;;6.91;77.16;100550.44;5074257;28;20040;-66
2023/04/21 03:04:11;;;;;;;26.33;19.05;;;;;;;7.29;76.85;100544.72;5076080;28;20053;-65
2023/04/21 03:06:39;;;;;;;27.17;19.83;;;;;;;7.53;75.69;100545.47;5073135;28;20052;-66
2023/04/21 03:09:06;;;;;;;27.45;18.70;;;;;;;7.15;75.83;100549.31;5058586;28;20056;-66
2023/04/21 03:11:34;;;;;;;25.58;18.13;;;;;;;7.17;76.26;100551.75;5074145;28;20420;-65
2023/04/21 03:14:01;;;;;;;29.90;19.65;;;;;;;6.88;77.69;100543.66;5076061;28;20045;-66
2023/04/21 03:16:28;;;;;;;24.27;17.88;;;;;;;7.17;77.12;100540.78;5074403;28;20048;-65
2023/04/21 03:18:56;;;;;;;28.77;19.13;;;;;;;7.32;75.95;100540.59;5058027;28;20059;-66
2023/04/21 03:21:23;;;;;;;26.63;18.80;;;;;;;7.40;75.54;100534.44;5072135;28;20041;-66
2023/04/21 03:23:51;;;;;;;24.08;17.17;;;;;;;7.39;75.26;100535.56;5075654;28;20056;-66
2023/04/21 03:26:19;;;;;;;23.88;16.63;;;;;;;7.19;75.65;100533.91;5073066;28;20041;-66
2023/04/21 03:28:47;;;;;;;21.65;14.85;;;;;;;7.09;76.00;100533.25;5074174;28;20071;-66
2023/04/21 03:31:14;;;;;;;21.23;15.02;;;;;;;7.08;75.40;100526.94;5074246;28;20048;-65
2023/04/21 03:33:41;;;;;;;23.10;15.25;;;;;;;6.71;76.72;100530.44;5073346;28;20048;-65
2023/04/21 03:36:09;;;;;;;20.45;15.48;;;;;;;6.76;77.14;100529.56;5068288;28;20053;-65
2023/04/21 03:38:38;;;;;;;23.20;15.23;;;;;;;6.66;77.27;100532.41;5054440;28;20053;-65
2023/04/21 03:41:05;;;;;;;23.52;15.48;;;;;;;6.63;77.85;100535.75;5043966;28;20048;-66
2023/04/21 03:43:32;;;;;;;20.17;14.85;;;;;;;6.72;77.94;100540.28;5074625;28;20059;-66
2023/04/21 03:46:00;;;;;;;20.48;14.43;;;;;;;7.08;76.65;100537.91;5056013;28;20059;-65
2023/04/21 03:48:28;;;;;;;19.75;14.23;;;;;;;7.32;75.95;100535.13;5074443;28;20052;-66
2023/04/21 03:50:55;;;;;;;20.92;14.35;;;;;;;7.50;74.93;100526.88;5072537;28;20840;-66
2023/04/21 03:53:23;;;;;;;22.45;14.88;;;;;;;7.34;74.35;100532.91;5075294;28;20499;-66
2023/04/21 03:55:50;;;;;;;20.88;14.90;;;;;;;7.17;75.02;100527.09;5073868;28;20694;-66
2023/04/21 03:58:17;;;;;;;19.27;14.02;;;;;;;7.36;75.15;100525.16;5074269;28;20052;-65
2023/04/21 04:00:45;;;;;;;20.23;14.77;;;;;;;7.06;75.29;100529.16;5073703;28;20052;-66
2023/04/21 04:03:12;;;;;;;19.48;14.55;;;;;;;7.11;76.55;100523.63;5059764;28;20048;-65
2023/04/21 04:05:40;;;;;;;19.35;13.77;;;;;;;7.11;76.25;100525.56;5073389;28;20063;-65
2023/04/21 04:08:08;;;;;;;21.77;15.18;;;;;;;7.08;76.32;100512.47;5073770;28;20060;-66
2023/04/21 04:10:35;;;;;;;19.90;15.05;;;;;;;6.83;77.23;100522.63;5074118;28;20063;-66
2023/04/21 04:13:03;;;;;;;22.98;14.93;;;;;;;6.58;78.52;100514.75;5074152;28;20048;-66
2023/04/21 04:15:30;;;;;;;21.42;15.00;;;;;;;6.76;78.97;100508.47;5074148;28;20057;-66
2023/04/21 04:17:57;;;;;;;23.42;15.43;;;;;;;7.14;77.42;100511.25;5074963;28;20064;-66
2023/04/21 04:20:25;;;;;;;20.67;15.15;;;;;;;7.27;76.58;100510.53;5074279;28;20044;-65
2023/04/21 04:22:52;;;;;;;23.05;15.70;;;;;;;7.29;76.62;100516.50;5073985;28;20048;-65
2023/04/21 04:25:20;;;;;;;23.38;16.10;;;;;;;7.47;75.81;100512.97;5074575;28;20052;-65
2023/04/21 04:27:49;;;;;;;21.23;15.68;;;;;;;7.61;75.08;100514.66;5073040;28;20491;-65
2023/04/21 04:30:16;;;;;;;21.23;15.85;;;;;;;7.52;75.47;100504.66;5073146;28;20060;-67
2023/04/21 04:32:44;;;;;;;23.60;16.88;;;;;;;7.27;76.11;100507.81;5073538;28;20049;-66
2023/04/21 04:35:12;;;;;;;24.98;16.30;;;;;;;7.06;76.83;100504.50;5073633;28;20067;-67
2023/04/21 04:37:40;;;;;;;23.90;16.52;;;;;;;6.99;78.08;100514.22;5073387;28;20052;-65
2023/04/21 04:40:14;;;;;;;23.90;16.17;;;;;;;7.32;77.17;100505.78;5074646;28;20052;-67
2023/04/21 04:42:42;;;;;;;21.17;15.75;;;;;;;6.97;77.86;100506.31;5056761;28;20055;-66
2023/04/21 04:45:10;;;;;;;25.90;16.15;;;;;;;7.09;78.09;100506.69;5075579;28;20059;-66
2023/04/21 04:47:37;;;;;;;21.50;15.90;;;;;;;7.31;77.33;100508.81;5077306;28;20064;-65
2023/04/21 04:50:05;;;;;;;21.55;16.13;;;;;;;7.28;77.41;100506.69;5077389;28;20060;-67
2023/04/21 04:52:33;;;;;;;25.42;16.60;;;;;;;7.50;76.71;100504.94;5076929;28;20515;-66
2023/04/21 04:55:00;;;;;;;20.80;15.23;;;;;;;7.31;77.17;100506.91;5076677;28;20400;-66
2023/04/21 04:57:28;;;;;;;20.05;15.07;;;;;;;7.27;77.51;100511.34;5076959;28;20523;-65
2023/04/21 04:59:55;;;;;;;22.88;16.20;;;;;;;7.43;77.41;100506.44;5077411;28;20052;-65
2023/04/21 05:02:23;;;;;;;23.42;17.02;;;;;;;7.29;77.54;100506.38;5066725;28;20366;-66
2023/04/21 05:04:51;;;;;;;24.48;17.52;;;;;;;7.17;78.14;100505.19;5056334;28;20053;-66
2023/04/21 05:07:19;;;;;;;22.70;16.17;;;;;;;7.26;78.27;100506.16;5056508;28;20063;-66
2023/04/21 05:09:47;;;;;;;22.60;16.40;;;;;;;7.46;77.32;100506.66;5076675;28;20048;-66
2023/04/21 05:12:14;;;;;;;24.42;16.50;;;;;;;7.62;77.08;100501.75;5075323;28;20051;-66
2023/04/21 05:14:41;;;;;;;22.98;16.60;;;;;;;7.63;76.84;100495.97;5076830;28;20527;-66
2023/04/21 05:17:09;;;;;;;29.20;18.95;;;;;;;7.59;76.93;100499.59;5058886;28;20044;-66
2023/04/21 05:19:36;;;;;;;25.95;19.98;;;;;;;7.20;77.86;100499.94;5076897;28;20060;-66
2023/04/21 05:22:05;;;;;;;29.15;19.02;;;;;;;7.21;79.22;100512.53;5076238;28;20061;-66
2023/04/21 05:24:33;;;;;;;23.33;18.15;;;;;;;7.50;77.70;100502.22;5059772;28;20143;-66
2023/04/21 05:27:01;;;;;;;25.55;18.95;;;;;;;7.28;78.21;100499.28;5074199;28;20056;-66
2023/04/21 05:29:29;;;;;;;27.45;18.48;;;;;;;7.28;78.49;100501.19;5043168;28;20057;-66
2023/04/21 05:31:57;;;;;;;26.80;19.50;;;;;;;7.19;79.09;100503.78;5076325;28;20056;-65
2023/04/21 05:34:24;;;;;;;29.17;19.55;;;;;;;7.14;79.16;100501.13;5075974;28;20049;-66
2023/04/21 05:36:52;;;;;;;26.88;20.33;;;;;;;7.22;79.84;100505.94;5075986;28;20053;-66
2023/04/21 05:39:19;;;;;;;27.90;18.88;;;;;;;7.42;79.03;100508.38;5077764;28;20071;-64
2023/04/21 05:41:46;;;;;;;29.23;19.23;;;;;;;7.07;79.95;100508.06;5076206;28;20060;-66
2023/04/21 05:44:17;;;;;;;26.95;19.67;;;;;;;7.06;80.17;100507.25;5075858;28;20053;-67
2023/04/21 05:46:45;;;;;;;26.20;19.25;;;;;;;7.35;79.43;100510.69;5074739;28;20048;-65
2023/04/21 05:49:12;;;;;;;28.55;19.40;;;;;;;7.44;78.45;100497.13;5077802;28;20063;-65
2023/04/21 05:51:40;;;;;;;29.35;19.88;;;;;;;7.46;78.27;100514.09;5075606;28;20052;-66
2023/04/21 05:54:07;;;;;;;26.67;19.05;;;;;;;7.68;78.30;100508.78;5077349;28;20774;-66
2023/04/21 05:56:34;;;;;;;23.80;17.48;;;;;;;7.89;76.08;100508.16;5074925;28;20063;-66
2023/04/21 05:59:02;;;;;;;25.13;17.40;;;;;;;7.82;75.88;100501.41;5077075;28;20068;-67
2023/04/21 06:01:29;;;;;;;23.75;16.02;;;;;;;7.89;75.09;100504.59;5072806;28;20067;-66
2023/04/21 06:03:57;;;;;;;24.63;17.20;;;;;;;7.72;76.12;100507.06;5056633;28;20060;-66
2023/04/21 06:06:26;;;;;;;22.30;17.00;;;;;;;7.75;75.33;100517.44;5065622;28;20404;-67
2023/04/21 06:08:53;;;;;;;24.20;17.35;;;;;;;7.80;75.21;100504.47;5075784;28;20076;-66
2023/04/21 06:11:21;;;;;;;24.98;17.55;;;;;;;7.81;75.47;100497.84;5075328;28;20052;-66
2023/04/21 06:13:49;;;;;;;24.58;16.70;;;;;;;7.97;75.10;100491.00;5074026;28;20076;-66
2023/04/21 06:16:16;;;;;;;21.90;16.75;;;;;;;8.32;74.42;100497.78;5074131;28;20044;-66
2023/04/21 06:18:43;;;;;;;22.73;16.48;;;;;;;8.06;73.82;100496.59;5058875;28;20507;-66
2023/04/21 06:21:11;;;;;;;23.42;17.33;;;;;;;7.89;74.70;100499.09;5073496;28;20055;-66
2023/04/21 06:23:38;;;;;;;26.67;17.25;;;;;;;8.13;74.52;100488.78;5048681;28;20424;-66
2023/04/21 06:26:06;;;;;;;24.70;16.92;;;;;;;8.15;74.18;100494.78;5072954;28;20483;-66
2023/04/21 06:28:34;;;;;;;20.27;15.18;;;;;;;7.60;75.04;100493.81;5071826;28;20049;-65
2023/04/21 06:31:02;;;;;;;22.90;16.90;;;;;;;7.55;75.64;100495.84;5068057;28;20052;-66
2023/04/21 06:33:34;;;;;;;22.90;15.65;;;;;;;7.73;75.51;100490.31;5075371;28;20040;-66
2023/04/21 06:36:01;;;;;;;24.95;17.20;;;;;;;7.98;74.92;100491.81;5071888;28;20048;-66
2023/04/21 06:38:29;;;;;;;24.25;17.65;;;;;;;8.15;74.49;100499.44;5073198;28;20052;-66
2023/04/21 06:40:56;;;;;;;22.38;16.63;;;;;;;8.50;73.21;100494.13;5078095;28;20048;-65
2023/04/21 06:43:23;;;;;;;21.33;16.50;;;;;;;8.52;72.61;100497.41;5076589;28;20052;-65
2023/04/21 06:45:50;;;;;;;22.27;16.90;;;;;;;8.20;73.32;100491.94;5066069;28;20052;-65
2023/04/21 06:48:18;;;;;;;25.77;17.80;;;;;;;7.93;74.11;100492.69;5072574;28;20052;-66
2023/04/21 06:50:45;;;;;;;23.77;16.65;;;;;;;8.16;74.09;100496.41;5055502;28;20762;-65
2023/04/21 06:53:13;;;;;;;22.13;16.23;;;;;;;8.28;73.48;100496.75;5072566;28;20051;-66
2023/04/21 06:55:41;;;;;;;22.23;16.85;;;;;;;8.05;73.33;100499.63;5069676;28;20371;-65
2023/04/21 06:58:08;;;;;;;25.33;17.15;;;;;;;8.15;73.49;100486.56;5060963;28;20061;-65
2023/04/21 07:00:35;;;;;;;22.73;17.33;;;;;;;8.29;73.63;100492.91;5059943;28;20463;-65
2023/04/21 07:03:03;;;;;;;24.00;18.05;;;;;;;8.25;73.73;100485.56;5063837;28;20056;-64
2023/04/21 07:05:30;;;;;;;27.77;19.20;;;;;;;7.83;76.04;100492.06;5062422;28;20051;-65
2023/04/21 07:08:00;;;;;;;24.75;17.73;;;;;;;8.26;75.31;100485.28;5062435;28;20052;-65
2023/04/21 07:10:28;;;;;;;23.35;17.40;;;;;;;8.81;74.07;100492.38;5059502;28;20052;-65
2023/04/21 07:12:55;;;;;;;26.70;18.67;;;;;;;8.85;72.11;100485.16;5064533;28;20082;-62
2023/04/21 07:15:23;;;;;;;23.73;16.77;;;;;;;8.90;72.35;100482.31;5060818;28;20714;-64
2023/04/21 07:17:50;;;;;;;23.08;16.70;;;;;;;9.12;70.98;100480.75;5063834;28;20049;-65
2023/04/21 07:20:18;;;;;;;31.30;17.63;;;;;;;8.58;71.94;100481.59;5051032;28;20063;-65
2023/04/21 07:22:45;;;;;;;23.23;16.85;;;;;;;8.77;72.64;100477.63;5069548;28;20504;-65
2023/04/21 07:25:12;;;;;;;22.73;17.10;;;;;;;8.78;71.09;100482.03;5060608;28;20047;-65
2023/04/21 07:27:40;;;;;;;31.95;17.88;;;;;;;8.89;71.71;100483.41;5062927;28;20053;-67
2023/04/21 07:30:07;;;;;;;25.10;15.77;;;;;;;8.93;70.55;100475.38;5066499;28;20774;-65
2023/04/21 07:32:37;;;;;;;22.58;15.35;;;;;;;9.23;69.57;100473.88;5072141;28;20067;-65
2023/04/21 07:35:05;;;;;;;22.13;14.75;;;;;;;9.37;69.49;100471.88;5067326;28;20049;-67
2023/04/21 07:37:33;;;;;;;23.33;17.10;;;;;;;9.19;70.15;100467.38;5058084;28;20052;-68
2023/04/21 07:40:01;;;;;;;26.60;20.42;;;;;;;8.83;73.06;100470.94;5064215;28;20757;-68
2023/04/21 07:42:28;;;;;;;33.28;22.42;;;;;;;8.54;75.35;100472.38;5050220;28;20052;-69
2023/04/21 07:44:56;;;;;;;35.67;22.75;;;;;;;8.88;75.23;100467.25;5061331;28;20044;-68
2023/04/21 07:47:23;;;;;;;31.85;23.17;;;;;;;8.57;75.33;100475.31;5064312;28;20048;-68
2023/04/21 07:49:51;;;;;;;32.10;22.85;;;;;;;8.65;75.37;100473.78;5064997;28;20049;-67
2023/04/21 07:52:18;;;;;;;32.50;22.83;;;;;;;8.58;75.58;100468.69;5055496;28;20053;-68
2023/04/21 07:54:46;;;;;;;29.73;22.45;;;;;;;8.89;75.40;100475.16;5062549;28;20055;-65
2023/04/21 07:57:13;;;;;;;32.30;22.42;;;;;;;8.89;74.30;100475.16;5064243;28;20072;-67
2023/04/21 07:59:41;;;;;;;28.15;20.95;;;;;;;9.04;75.87;100466.59;5058169;28;20048;-65
2023/04/21 08:02:09;;;;;;;32.15;21.40;;;;;;;9.44;73.21;100466.75;5052420;28;20044;-66
2023/04/21 08:04:36;;;;;;;35.95;21.70;;;;;;;9.11;73.65;100468.94;5062050;28;20060;-66
2023/04/21 08:07:04;;;;;;;32.35;21.73;;;;;;;9.28;73.64;100468.25;5060666;28;20106;-66
2023/04/21 08:09:31;;;;;;;29.33;20.23;;;;;;;9.55;72.63;100471.72;5068195;28;20044;-67
2023/04/21 08:12:00;;;;;;;26.65;19.67;;;;;;;9.73;72.46;100461.63;5070042;28;20044;-67
2023/04/21 08:14:28;;;;;;;34.92;20.05;;;;;;;10.04;70.82;100460.53;5065402;28;20052;-65
2023/04/21 08:16:56;;;;;;;27.73;19.52;;;;;;;10.07;70.51;100456.34;5063424;28;20499;-68
2023/04/21 08:19:24;;;;;;;23.98;18.90;;;;;;;10.73;69.57;100458.88;5060486;28;20060;-65
2023/04/21 08:21:51;;;;;;;27.60;20.38;;;;;;;10.73;67.68;100458.06;5059650;28;20404;-66
2023/04/21 08:24:19;;;;;;;25.65;17.33;;;;;;;10.77;66.78;100446.09;5064993;28;20059;-66
2023/04/21 08:26:47;;;;;;;24.05;17.92;;;;;;;10.61;66.01;100455.13;5057349;28;20052;-65
2023/04/21 08:29:15;;;;;;;30.10;18.55;;;;;;;10.42;66.82;100455.38;5073526;28;20047;-65
2023/04/21 08:31:42;;;;;;;26.00;18.83;;;;;;;10.44;65.97;100450.38;5064953;28;20045;-66
2023/04/21 08:34:10;;;;;;;25.20;17.85;;;;;;;10.10;67.09;100451.03;5060263;28;20059;-66
2023/04/21 08:36:37;;;;;;;25.23;18.17;;;;;;;9.87;68.15;100457.69;5067976;28;20047;-63
2023/04/21 08:39:05;;;;;;;25.92;17.73;;;;;;;9.88;69.04;100456.56;5042836;28;20056;-65
2023/04/21 08:41:32;;;;;;;24.08;17.63;;;;;;;9.87;67.82;100456.84;5069670;28;20055;-66
2023/04/21 08:43:59;;;;;;;24.38;17.05;;;;;;;10.27;67.21;100455.78;5065817;28;20523;-65
2023/04/21 08:46:27;;;;;;;23.23;17.17;;;;;;;10.20;65.93;100452.69;5067431;28;20040;-65
2023/04/21 08:48:57;;;;;;;25.98;16.73;;;;;;;10.17;65.28;100450.59;5070811;28;20526;-66
2023/04/21 08:51:26;;;;;;;26.27;16.73;;;;;;;10.39;64.74;100450.50;5068961;28;20542;-65
2023/04/21 08:53:54;;;;;;;23.10;15.80;;;;;;;9.84;65.50;100454.75;5068761;28;20696;-65
2023/04/21 08:56:25;;;;;;;24.23;17.15;;;;;;;9.46;67.33;100464.53;5071078;28;20053;-66
2023/04/21 08:58:53;;;;;;;26.02;16.48;;;;;;;9.08;67.81;100456.59;5071021;28;20060;-65
2023/04/21 09:01:20;;;;;;;24.73;16.45;;;;;;;9.59;67.41;100461.69;5054111;28;20044;-64
2023/04/21 09:03:47;;;;;;;22.02;16.27;;;;;;;10.03;65.67;100447.09;5052506;28;20056;-64
2023/04/21 09:06:15;;;;;;;25.33;15.65;;;;;;;10.44;63.84;100444.06;5060656;28;20040;-67
2023/04/21 09:08:54;;;;;;;18.00;14.65;;;;;;;10.23;63.34;100445.75;5066229;28;20060;-64
2023/04/21 09:11:22;;;;;;;20.98;14.27;;;;;;;10.03;63.38;100444.34;5065834;28;20052;-64
2023/04/21 09:13:49;;;;;;;23.65;15.20;;;;;;;10.13;65.04;100446.84;5065722;28;20060;-65
2023/04/21 09:16:21;;;;;;;21.10;15.15;;;;;;;10.03;64.49;100458.91;5067640;28;20048;-65
2023/04/21 09:18:50;;;;;;;22.23;15.38;;;;;;;9.73;64.73;100462.44;5067525;28;20060;-64
2023/04/21 09:21:18;;;;;;;20.17;14.82;;;;;;;9.62;65.76;100461.09;5065886;28;20057;-65
2023/04/21 09:23:48;;;;;;;22.45;16.33;;;;;;;9.67;65.03;100473.91;5061640;28;20511;-65
2023/04/21 09:26:18;;;;;;;22.58;17.23;;;;;;;9.79;64.47;100460.38;5065263;28;20044;-65
2023/04/21 09:28:48;;;;;;;23.60;15.80;;;;;;;9.87;64.45;100459.63;5070285;28;20053;-65
2023/04/21 09:31:19;;;;;;;22.60;15.75;;;;;;;9.81;63.50;100458.13;5064322;28;20063;-65
2023/04/21 09:33:53;;;;;;;21.65;14.63;;;;;;;9.68;62.70;100465.31;5057398;28;20420;-65
2023/04/21 09:36:28;;;;;;;19.30;14.77;;;;;;;9.44;64.56;100459.34;5072977;28;20048;-64
2023/04/21 09:39:02;;;;;;;21.58;15.60;;;;;;;9.72;63.99;100460.84;5070385;28;20067;-65
2023/04/21 09:41:32;;;;;;;21.48;15.23;;;;;;;9.50;63.72;100466.31;5070423;28;20468;-64
2023/04/21 09:44:00;;;;;;;26.73;16.40;;;;;;;9.57;63.69;100461.19;5069411;28;20053;-64
2023/04/21 09:46:29;;;;;;;25.45;14.90;;;;;;;9.99;63.01;100449.66;5070299;28;20045;-63
2023/04/21 09:48:59;;;;;;;20.00;14.88;;;;;;;10.47;61.82;100441.47;5070322;28;20048;-64
2023/04/21 09:51:28;;;;;;;19.30;15.23;;;;;;;10.50;60.36;100442.75;5060801;28;20049;-65
2023/04/21 09:54:17;;;;;;;21.83;15.07;;;;;;;10.20;60.20;100450.75;5068158;28;20044;-66
2023/04/21 09:57:00;;;;;;;;;;;;;;;10.51;60.18;100447.16;5071516;28;20044;-66
2023/04/21 09:59:34;;;;;;;19.98;14.07;;;;;;;10.29;59.59;100442.53;5068465;28;19920;-66
2023/04/21 10:02:06;;;;;;;21.75;14.93;;;;;;;9.98;61.06;100450.78;5062410;28;20053;-65
2023/04/21 10:04:36;;;;;;;22.67;14.65;;;;;;;10.23;60.75;100449.31;5068459;28;20056;-65
2023/04/21 10:07:06;;;;;;;19.20;14.63;;;;;;;10.59;59.95;100438.09;5078831;28;20045;-66
2023/04/21 10:09:44;;;;;;;18.17;13.57;;;;;;;10.33;58.66;100438.03;5064689;28;20056;-66
2023/04/21 10:12:13;;;;;;;17.30;13.35;;;;;;;10.14;59.78;100445.72;5067019;28;20053;-67
2023/04/21 10:14:40;;;;;;;20.60;14.95;;;;;;;9.98;59.53;100441.72;5062216;28;20051;-67
2023/04/21 10:17:09;;;;;;;26.35;15.45;;;;;;;10.23;59.57;100438.31;5055347;28;20041;-66
2023/04/21 10:19:38;;;;;;;37.17;14.68;;;;;;;10.58;59.24;100431.78;5059000;28;20052;-67
2023/04/21 10:22:09;;;;;;;23.80;14.30;;;;;;;11.11;57.52;100439.78;5065057;28;20052;-68
2023/04/21 10:24:39;;;;;;;20.38;13.50;;;;;;;11.25;56.50;100434.94;5060701;28;20111;-66
2023/04/21 10:27:11;;;;;;;20.15;14.75;;;;;;;11.30;55.57;100426.50;5054344;28;20059;-66
2023/04/21 10:29:39;;;;;;;18.58;13.63;;;;;;;11.66;55.75;100426.19;5068123;28;20056;-66
2023/04/21 10:32:41;;;;;;;16.80;13.82;;;;;;;11.49;54.15;100421.44;5069455;28;20048;-66
2023/04/21 10:35:20;;;;;;;21.10;13.75;;;;;;;11.55;54.09;100422.91;5056343;28;20059;-67
2023/04/21 10:37:52;;;;;;;18.67;13.38;;;;;;;11.98;53.53;100422.84;5070558;28;20056;-65
2023/04/21 10:40:29;;;;;;;20.08;13.00;;;;;;;11.70;54.00;100411.38;5069192;28;20618;-64
2023/04/21 10:43:30;;;;;;;;;;;;;;;11.82;52.84;100419.78;5063861;28;20052;-65
2023/04/21 10:45:57;;;;;;;19.85;11.38;;;;;;;11.93;52.30;100410.03;5033792;28;19936;-66
2023/04/21 10:48:25;;;;;;;17.45;11.25;;;;;;;12.09;51.58;100411.13;5066772;28;20060;-66
2023/04/21 10:50:52;;;;;;;17.40;11.02;;;;;;;12.14;50.19;100401.81;5063710;28;20072;-65
2023/04/21 10:53:24;;;;;;;19.35;11.57;;;;;;;12.21;50.88;100414.00;5066202;28;20059;-66
2023/04/21 10:55:52;;;;;;;19.40;12.25;;;;;;;12.27;50.60;100401.59;5067068;28;20495;-69
2023/04/21 10:58:24;;;;;;;16.08;11.88;;;;;;;12.46;50.84;100398.44;5053848;28;20079;-66
2023/04/21 11:00:54;;;;;;;17.88;12.68;;;;;;;12.00;49.81;100392.94;5061644;28;20044;-66
2023/04/21 11:03:21;;;;;;;19.23;14.23;;;;;;;11.53;51.30;100388.50;5061574;28;20041;-67
2023/04/21 11:05:49;;;;;;;19.88;13.60;;;;;;;11.17;52.04;100389.72;5061375;28;20495;-65
2023/04/21 11:08:16;;;;;;;19.27;13.07;;;;;;;11.09;52.36;100385.00;5061252;28;20048;-65
2023/04/21 11:10:54;;;;;;;17.27;11.77;;;;;;;11.60;51.54;100378.59;5057555;28;20503;-66
2023/04/21 11:13:23;;;;;;;19.52;13.38;;;;;;;11.72;50.66;100384.28;5061209;28;20052;-64
2023/04/21 11:16:02;;;;;;;17.85;13.05;;;;;;;11.35;51.42;100387.72;5061075;28;20045;-65
2023/04/21 11:18:40;;;;;;;22.90;13.07;;;;;;;11.66;50.50;100382.84;5067148;28;20041;-65
2023/04/21 11:21:10;;;;;;;21.08;13.73;;;;;;;11.79;50.20;100370.78;5063063;28;20053;-64
2023/04/21 11:23:41;;;;;;;22.37;13.23;;;;;;;12.02;50.21;100379.63;5063259;28;20068;-65